createdAt,value
2022-10-16T00:01:07.308Z,81.15
2022-10-16T00:03:35.622Z,81.06
2022-10-16T00:06:04.143Z,80.81
2022-10-16T00:08:32.454Z,80.58
2022-10-16T00:11:04.870Z,80.07
2022-10-16T00:13:35.388Z,80.34
2022-10-16T00:16:04.431Z,79.58
2022-10-16T00:18:32.984Z,79.48
2022-10-16T00:21:05.538Z,78.91
2022-10-16T00:23:33.959Z,79.31
2022-10-16T00:26:03.662Z,79.50
2022-10-16T00:28:32.434Z,79.79
2022-10-16T00:31:05.335Z,80.25
2022-10-16T00:33:33.347Z,80.21
2022-10-16T00:36:01.817Z,80.79
2022-10-16T00:38:30.005Z,80.80
2022-10-16T00:40:58.345Z,80.81
2022-10-16T00:43:39.123Z,80.57
2022-10-16T00:46:16.909Z,80.67
2022-10-16T00:48:51.622Z,80.40
2022-10-16T00:51:23.855Z,81.09
2022-10-16T00:53:52.465Z,80.91
2022-10-16T00:56:20.570Z,81.45
2022-10-16T00:58:48.672Z,81.68
2022-10-16T01:01:18.096Z,81.63
2022-10-16T01:03:46.259Z,81.48
2022-10-16T01:09:09.196Z,81.62
2022-10-16T01:11:44.180Z,81.75
2022-10-16T01:14:19.777Z,81.51
2022-10-16T01:16:55.159Z,81.46
2022-10-16T01:19:38.667Z,81.51
2022-10-16T01:22:09.380Z,81.70
2022-10-16T01:24:41.559Z,81.70
2022-10-16T01:27:16.792Z,81.85
2022-10-16T01:29:54.323Z,82.09
2022-10-16T01:32:33.479Z,81.74
2022-10-16T01:35:05.650Z,81.86
2022-10-16T01:37:39.695Z,82.34
2022-10-16T01:40:11.930Z,82.13
2022-10-16T01:42:44.901Z,82.44
2022-10-16T01:45:19.069Z,83.02
2022-10-16T01:47:48.920Z,83.08
2022-10-16T01:50:20.222Z,83.18
2022-10-16T01:52:51.808Z,83.06
2022-10-16T01:55:23.124Z,82.58
2022-10-16T01:57:54.962Z,81.90
2022-10-16T02:00:24.748Z,82.92
2022-10-16T02:02:56.255Z,82.70
2022-10-16T02:05:29.097Z,83.07
2022-10-16T02:07:58.554Z,83.04
2022-10-16T02:10:32.398Z,82.89
2022-10-16T02:13:08.832Z,83.67
2022-10-16T02:15:36.980Z,83.25
2022-10-16T02:18:05.753Z,83.79
2022-10-16T02:20:42.455Z,83.50
2022-10-16T02:23:17.072Z,83.13
2022-10-16T02:25:47.664Z,83.53
2022-10-16T02:28:20.809Z,83.63
2022-10-16T02:30:54.419Z,83.40
2022-10-16T02:33:25.714Z,83.62
2022-10-16T02:35:54.889Z,83.77
2022-10-16T02:38:24.092Z,83.79
2022-10-16T02:40:52.447Z,83.70
2022-10-16T02:43:22.306Z,83.55
2022-10-16T02:45:50.302Z,84.00
2022-10-16T02:48:18.240Z,84.29
2022-10-16T02:50:46.212Z,83.77
2022-10-16T02:53:14.148Z,83.98
2022-10-16T02:55:42.155Z,83.94
2022-10-16T02:58:10.149Z,84.16
2022-10-16T03:00:39.576Z,84.23
2022-10-16T03:03:07.703Z,83.76
2022-10-16T03:05:35.620Z,83.85
2022-10-16T03:08:03.585Z,84.16
2022-10-16T03:10:31.586Z,84.25
2022-10-16T03:13:00.110Z,84.80
2022-10-16T03:15:29.217Z,85.89
2022-10-16T03:17:59.993Z,85.78
2022-10-16T03:20:28.306Z,85.23
2022-10-16T03:22:56.244Z,85.24
2022-10-16T03:25:24.240Z,85.05
2022-10-16T03:27:52.177Z,85.28
2022-10-16T03:30:20.080Z,85.30
2022-10-16T03:32:48.003Z,84.50
2022-10-16T03:35:17.346Z,84.10
2022-10-16T03:37:45.255Z,83.56
2022-10-16T03:40:13.654Z,82.90
2022-10-16T03:42:41.653Z,82.40
2022-10-16T03:45:10.390Z,81.90
2022-10-16T03:47:38.359Z,81.62
2022-10-16T03:50:07.365Z,82.24
2022-10-16T03:52:36.641Z,81.96
2022-10-16T03:55:04.855Z,81.55
2022-10-16T03:57:32.763Z,81.34
2022-10-16T04:00:00.757Z,81.30
2022-10-16T04:02:28.803Z,81.07
2022-10-16T04:04:56.740Z,81.48
2022-10-16T04:07:25.000Z,82.21
2022-10-16T04:09:54.509Z,82.08
2022-10-16T04:12:22.500Z,82.63
2022-10-16T04:14:50.456Z,82.67
2022-10-16T04:17:18.442Z,82.85
2022-10-16T04:19:46.363Z,82.71
2022-10-16T04:22:14.527Z,83.11
2022-10-16T04:24:42.518Z,82.82
2022-10-16T04:27:11.968Z,82.75
2022-10-16T04:29:39.897Z,82.82
2022-10-16T04:32:09.780Z,83.24
2022-10-16T04:34:39.140Z,83.29
2022-10-16T04:37:07.445Z,83.59
2022-10-16T04:39:35.560Z,83.17
2022-10-16T04:42:03.712Z,83.10
2022-10-16T04:44:33.426Z,83.53
2022-10-16T04:47:01.432Z,83.62
2022-10-16T04:49:29.351Z,83.43
2022-10-16T04:51:57.359Z,83.65
2022-10-16T04:54:25.624Z,83.41
2022-10-16T04:56:53.659Z,83.02
2022-10-16T04:59:22.291Z,83.57
2022-10-16T05:01:52.153Z,83.96
2022-10-16T05:04:20.098Z,83.74
2022-10-16T05:06:48.054Z,83.85
2022-10-16T05:09:15.977Z,84.23
2022-10-16T05:11:43.913Z,84.16
2022-10-16T05:16:44.718Z,84.02
2022-10-16T05:19:29.435Z,83.63
2022-10-16T05:21:57.623Z,83.59
2022-10-16T05:24:25.635Z,83.95
2022-10-16T05:26:53.677Z,84.02
2022-10-16T05:29:21.707Z,83.46
2022-10-16T05:31:52.885Z,82.72
2022-10-16T05:34:22.656Z,82.95
2022-10-16T05:36:51.092Z,82.67
2022-10-16T05:39:19.029Z,83.37
2022-10-16T05:41:51.621Z,82.58
2022-10-16T05:44:19.699Z,83.01
2022-10-16T05:46:49.935Z,83.02
2022-10-16T05:49:18.590Z,82.77
2022-10-16T05:51:50.360Z,83.17
2022-10-16T05:54:18.505Z,83.65
2022-10-16T05:56:46.886Z,84.29
2022-10-16T05:59:15.119Z,84.73
2022-10-16T06:01:46.257Z,84.21
2022-10-16T06:04:14.403Z,83.89
2022-10-16T06:06:42.583Z,84.10
2022-10-16T06:09:12.785Z,84.20
2022-10-16T06:11:40.730Z,84.48
2022-10-16T06:14:10.146Z,84.03
2022-10-16T06:16:39.445Z,84.47
2022-10-16T06:19:09.197Z,84.25
2022-10-16T06:21:37.162Z,83.90
2022-10-16T06:24:05.749Z,83.92
2022-10-16T06:26:35.064Z,84.80
2022-10-16T06:29:03.427Z,84.72
2022-10-16T06:31:34.587Z,84.78
2022-10-16T06:34:03.103Z,84.34
2022-10-16T06:36:31.143Z,84.88
2022-10-16T06:38:59.085Z,84.98
2022-10-16T06:41:26.976Z,84.97
2022-10-16T06:43:56.265Z,84.07
2022-10-16T06:46:26.033Z,84.43
2022-10-16T06:48:54.778Z,84.62
2022-10-16T06:51:24.374Z,84.78
2022-10-16T06:54:09.948Z,84.22
2022-10-16T06:56:38.624Z,84.10
2022-10-16T06:59:07.942Z,83.78
2022-10-16T07:01:35.915Z,83.35
2022-10-16T07:04:04.385Z,83.64
2022-10-16T07:06:34.694Z,83.93
2022-10-16T07:09:06.566Z,83.78
2022-10-16T07:11:35.420Z,84.12
2022-10-16T07:14:03.419Z,83.46
2022-10-16T07:16:34.608Z,83.05
2022-10-16T07:19:04.818Z,83.27
2022-10-16T07:21:36.702Z,83.93
2022-10-16T07:24:06.918Z,83.46
2022-10-16T07:26:37.175Z,83.24
2022-10-16T07:29:05.538Z,83.55
2022-10-16T07:31:35.299Z,83.50
2022-10-16T07:34:03.281Z,83.29
2022-10-16T07:36:31.229Z,84.15
2022-10-16T07:39:00.327Z,84.72
2022-10-16T07:41:29.032Z,84.61
2022-10-16T07:43:58.351Z,84.62
2022-10-16T07:46:26.410Z,85.22
2022-10-16T07:48:55.872Z,86.22
2022-10-16T07:51:25.945Z,86.38
2022-10-16T07:53:54.578Z,86.21
2022-10-16T07:56:23.311Z,84.58
2022-10-16T07:58:52.532Z,82.79
2022-10-16T08:01:21.480Z,81.06
2022-10-16T08:03:51.326Z,80.05
2022-10-16T08:06:26.695Z,78.43
2022-10-16T08:08:56.596Z,76.75
2022-10-16T08:11:25.541Z,75.85
2022-10-16T08:13:53.663Z,75.36
2022-10-16T08:16:21.689Z,74.89
2022-10-16T08:18:49.638Z,75.21
2022-10-16T08:21:21.772Z,74.56
2022-10-16T08:23:54.576Z,74.40
2022-10-16T08:26:26.941Z,74.80
2022-10-16T08:28:55.534Z,74.73
2022-10-16T08:31:24.125Z,74.67
2022-10-16T08:33:53.269Z,73.73
2022-10-16T08:36:22.913Z,72.27
2022-10-16T08:38:52.162Z,72.63
2022-10-16T08:41:45.404Z,71.67
2022-10-16T08:44:32.523Z,71.98
2022-10-16T08:47:10.500Z,72.71
2022-10-16T08:49:39.999Z,72.90
2022-10-16T08:52:15.112Z,72.93
2022-10-16T08:54:47.613Z,72.98
2022-10-16T08:57:21.473Z,72.87
2022-10-16T08:59:52.168Z,72.52
2022-10-16T09:02:29.324Z,72.37
2022-10-16T09:05:26.264Z,71.28
2022-10-16T09:08:13.219Z,71.27
2022-10-16T09:10:52.082Z,71.60
2022-10-16T09:13:26.595Z,71.80
2022-10-16T09:16:06.592Z,70.98
2022-10-16T09:18:43.101Z,69.78
2022-10-16T09:21:17.967Z,68.42
2022-10-16T09:23:47.830Z,67.67
2022-10-16T09:26:17.653Z,67.32
2022-10-16T09:28:46.320Z,67.74
2022-10-16T09:31:22.636Z,67.29
2022-10-16T09:33:54.811Z,67.69
2022-10-16T09:36:25.364Z,67.58
2022-10-16T09:39:05.065Z,67.94
2022-10-16T09:41:36.245Z,67.47
2022-10-16T09:44:05.648Z,68.15
2022-10-16T09:46:35.621Z,67.94
2022-10-16T09:49:05.827Z,68.25
2022-10-16T09:51:36.357Z,68.54
2022-10-16T09:54:17.212Z,66.29
2022-10-16T09:56:46.719Z,67.58
2022-10-16T09:59:16.503Z,67.37
2022-10-16T10:01:47.834Z,67.42
2022-10-16T10:04:16.819Z,65.53
2022-10-16T10:06:47.209Z,64.85
2022-10-16T10:09:23.441Z,65.26
2022-10-16T10:11:54.453Z,64.39
2022-10-16T10:14:29.051Z,62.75
2022-10-16T10:17:15.854Z,64.11
2022-10-16T10:19:49.331Z,63.87
2022-10-16T10:22:29.978Z,63.67
2022-10-16T10:25:09.799Z,64.57
2022-10-16T10:27:45.936Z,63.63
2022-10-16T10:30:21.850Z,61.38
2022-10-16T10:32:58.271Z,61.42
2022-10-16T10:35:36.254Z,62.54
2022-10-16T10:38:18.246Z,62.09
2022-10-16T10:40:58.317Z,60.60
2022-10-16T10:43:42.447Z,59.72
2022-10-16T10:46:18.323Z,59.80
2022-10-16T10:49:00.516Z,60.37
2022-10-16T10:51:34.004Z,60.31
2022-10-16T10:54:15.685Z,61.19
2022-10-16T10:56:57.547Z,61.81
2022-10-16T10:59:40.588Z,62.19
2022-10-16T11:02:17.778Z,61.82
2022-10-16T11:05:10.223Z,62.24
2022-10-16T11:07:45.751Z,62.61
2022-10-16T11:10:17.732Z,61.71
2022-10-16T11:12:51.991Z,60.81
2022-10-16T11:15:23.354Z,61.45
2022-10-16T11:17:57.825Z,61.40
2022-10-16T11:20:28.817Z,60.55
2022-10-16T11:23:02.141Z,59.68
2022-10-16T11:25:32.356Z,61.12
2022-10-16T11:28:09.595Z,60.77
2022-10-16T11:30:46.387Z,60.70
2022-10-16T11:33:32.450Z,59.44
2022-10-16T11:36:09.590Z,59.42
2022-10-16T11:38:45.615Z,58.88
2022-10-16T11:41:21.156Z,59.05
2022-10-16T11:43:59.121Z,60.51
2022-10-16T11:46:29.792Z,61.47
2022-10-16T11:49:05.583Z,60.60
2022-10-16T11:51:37.783Z,59.60
2022-10-16T11:54:17.030Z,58.82
2022-10-16T11:56:47.973Z,57.32
2022-10-16T11:59:26.050Z,56.47
2022-10-16T12:01:59.273Z,56.49
2022-10-16T12:04:34.981Z,55.48
2022-10-16T12:07:08.051Z,55.07
2022-10-16T12:09:39.742Z,54.95
2022-10-16T12:12:29.104Z,55.27
2022-10-16T12:15:26.005Z,55.08
2022-10-16T12:18:03.678Z,55.99
2022-10-16T12:20:33.625Z,57.23
2022-10-16T12:23:03.758Z,57.44
2022-10-16T12:25:34.643Z,55.27
2022-10-16T12:28:06.106Z,56.43
2022-10-16T12:30:38.210Z,55.26
2022-10-16T12:33:08.112Z,56.19
2022-10-16T12:35:45.444Z,55.37
2022-10-16T12:38:22.061Z,54.99
2022-10-16T12:41:00.015Z,55.17
2022-10-16T12:43:36.913Z,55.54
2022-10-16T12:46:22.524Z,55.59
2022-10-16T12:49:08.333Z,55.21
2022-10-16T12:51:38.364Z,55.18
2022-10-16T12:54:14.195Z,56.12
2022-10-16T12:56:51.660Z,53.63
2022-10-16T12:59:31.570Z,54.77
2022-10-16T13:02:33.976Z,55.37
2022-10-16T13:05:15.314Z,55.61
2022-10-16T13:07:56.047Z,54.85
2022-10-16T13:10:29.547Z,55.02
2022-10-16T13:13:26.958Z,54.23
2022-10-16T13:16:05.988Z,54.38
2022-10-16T13:18:44.336Z,54.86
2022-10-16T13:21:23.816Z,54.92
2022-10-16T13:24:01.257Z,54.92
2022-10-16T13:26:37.996Z,54.58
2022-10-16T13:29:06.609Z,55.51
2022-10-16T13:31:35.465Z,54.40
2022-10-16T13:34:05.544Z,54.20
2022-10-16T13:36:38.023Z,54.61
2022-10-16T13:39:14.859Z,55.33
2022-10-16T13:41:43.472Z,55.10
2022-10-16T13:44:18.099Z,53.05
2022-10-16T13:46:46.062Z,53.96
2022-10-16T13:49:17.757Z,53.53
2022-10-16T13:51:57.217Z,54.57
2022-10-16T13:54:25.662Z,53.86
2022-10-16T13:57:03.196Z,53.63
2022-10-16T13:59:39.900Z,53.81
2022-10-16T14:02:17.028Z,53.61
2022-10-16T14:04:46.991Z,53.14
2022-10-16T14:07:21.736Z,53.33
2022-10-16T14:09:52.109Z,54.46
2022-10-16T14:12:22.910Z,53.78
2022-10-16T14:14:55.948Z,54.22
2022-10-16T14:17:26.953Z,54.00
2022-10-16T14:20:02.424Z,54.50
2022-10-16T14:22:35.338Z,54.68
2022-10-16T14:25:03.715Z,55.41
2022-10-16T14:27:34.718Z,55.10
2022-10-16T14:30:22.262Z,53.91
2022-10-16T14:32:58.849Z,54.60
2022-10-16T14:35:31.343Z,54.14
2022-10-16T14:38:01.570Z,53.85
2022-10-16T14:40:31.946Z,54.36
2022-10-16T14:43:00.682Z,54.40
2022-10-16T14:45:32.149Z,54.78
2022-10-16T14:48:03.351Z,55.39
2022-10-16T14:50:32.740Z,55.13
2022-10-16T14:53:01.277Z,55.15
2022-10-16T14:55:29.294Z,55.22
2022-10-16T14:57:59.837Z,54.81
2022-10-16T15:00:29.428Z,55.46
2022-10-16T15:02:57.435Z,55.14
2022-10-16T15:05:27.407Z,55.23
2022-10-16T15:07:57.592Z,55.21
2022-10-16T15:10:29.150Z,54.78
2022-10-16T15:12:57.238Z,55.84
2022-10-16T15:15:36.974Z,54.16
2022-10-16T15:18:05.159Z,54.20
2022-10-16T15:20:35.367Z,54.47
2022-10-16T15:23:08.098Z,54.26
2022-10-16T15:25:40.711Z,55.67
2022-10-16T15:28:08.989Z,54.98
2022-10-16T15:30:38.061Z,54.86
2022-10-16T15:33:07.572Z,54.99
2022-10-16T15:35:35.469Z,54.46
2022-10-16T15:38:04.800Z,54.95
2022-10-16T15:40:33.096Z,55.14
2022-10-16T15:43:01.015Z,55.31
2022-10-16T15:45:28.903Z,55.51
2022-10-16T15:47:56.873Z,55.93
2022-10-16T15:50:24.943Z,56.77
2022-10-16T15:52:53.254Z,56.91
2022-10-16T15:55:22.574Z,57.27
2022-10-16T15:57:50.501Z,57.62
2022-10-16T16:00:21.787Z,58.14
2022-10-16T16:02:53.649Z,58.50
2022-10-16T16:05:22.242Z,58.34
2022-10-16T16:07:50.948Z,58.72
2022-10-16T16:10:20.548Z,58.28
2022-10-16T16:12:53.650Z,58.52
2022-10-16T16:15:22.693Z,59.64
2022-10-16T16:17:51.416Z,60.53
2022-10-16T16:20:19.344Z,61.48
2022-10-16T16:22:47.260Z,62.01
2022-10-16T16:25:15.254Z,62.23
2022-10-16T16:27:43.305Z,62.03
2022-10-16T16:30:18.286Z,62.05
2022-10-16T16:32:47.840Z,62.07
2022-10-16T16:35:16.050Z,62.25
2022-10-16T16:37:44.041Z,62.00
2022-10-16T16:40:12.259Z,61.90
2022-10-16T16:42:40.180Z,62.18
2022-10-16T16:45:09.507Z,62.07
2022-10-16T16:47:39.448Z,62.29
2022-10-16T16:50:08.104Z,62.65
2022-10-16T16:52:36.383Z,63.16
2022-10-16T16:55:05.071Z,62.99
2022-10-16T16:57:32.983Z,64.87
2022-10-16T17:00:00.944Z,65.51
2022-10-16T17:02:28.942Z,66.17
2022-10-16T17:04:58.773Z,66.66
2022-10-16T17:07:28.639Z,67.45
2022-10-16T17:09:56.862Z,67.65
2022-10-16T17:12:24.943Z,67.81
2022-10-16T17:14:53.081Z,68.11
2022-10-16T17:17:20.994Z,67.65
2022-10-16T17:19:51.772Z,67.51
2022-10-16T17:22:21.801Z,67.57
2022-10-16T17:24:52.253Z,68.18
2022-10-16T17:27:20.310Z,69.31
2022-10-16T17:29:52.565Z,69.78
2022-10-16T17:32:21.937Z,70.19
2022-10-16T17:34:49.842Z,70.11
2022-10-16T17:37:18.292Z,70.70
2022-10-16T17:39:48.024Z,71.02
2022-10-16T17:42:15.965Z,71.63
2022-10-16T17:44:44.039Z,72.24
2022-10-16T17:47:12.052Z,72.73
2022-10-16T17:49:39.954Z,72.96
2022-10-16T17:52:07.890Z,73.30
2022-10-16T17:54:35.836Z,73.63
2022-10-16T17:57:05.416Z,73.84
2022-10-16T17:59:33.403Z,74.36
2022-10-16T18:02:01.400Z,74.63
2022-10-16T18:04:29.439Z,74.64
2022-10-16T18:06:57.404Z,74.89
2022-10-16T18:09:25.322Z,75.44
2022-10-16T18:11:59.870Z,75.45
2022-10-16T18:14:31.096Z,76.05
2022-10-16T18:16:59.953Z,76.40
2022-10-16T18:19:28.303Z,76.72
2022-10-16T18:21:56.641Z,76.63
2022-10-16T18:24:25.823Z,76.78
2022-10-16T18:26:56.870Z,76.48
2022-10-16T18:29:25.875Z,76.61
2022-10-16T18:31:55.328Z,76.79
2022-10-16T18:34:23.273Z,76.71
2022-10-16T18:36:54.266Z,76.80
2022-10-16T18:39:24.758Z,76.93
2022-10-16T18:41:59.483Z,77.18
2022-10-16T18:44:27.709Z,77.03
2022-10-16T18:46:57.281Z,77.36
2022-10-16T18:49:27.405Z,77.40
2022-10-16T18:51:56.800Z,77.64
2022-10-16T18:54:25.749Z,77.93
2022-10-16T18:56:54.156Z,78.13
2022-10-16T18:59:22.312Z,78.40
2022-10-16T19:01:51.173Z,78.77
2022-10-16T19:04:22.879Z,78.50
2022-10-16T19:06:54.065Z,78.23
2022-10-16T19:09:25.581Z,78.40
2022-10-16T19:11:53.808Z,78.57
2022-10-16T19:14:21.840Z,78.82
2022-10-16T19:16:49.948Z,80.17
2022-10-16T19:19:20.614Z,80.39
2022-10-16T19:21:55.810Z,80.32
2022-10-16T19:24:23.720Z,80.21
2022-10-16T19:26:51.643Z,80.22
2022-10-16T19:29:20.491Z,79.88
2022-10-16T19:31:48.457Z,79.89
2022-10-16T19:34:16.394Z,79.66
2022-10-16T19:36:45.755Z,79.14
2022-10-16T19:39:17.265Z,79.26
2022-10-16T19:41:45.388Z,79.44
2022-10-16T19:44:15.529Z,79.66
2022-10-16T19:46:44.132Z,79.60
2022-10-16T19:49:14.403Z,79.74
2022-10-16T19:51:42.377Z,79.62
2022-10-16T19:54:14.277Z,79.69
2022-10-16T19:56:43.663Z,79.92
2022-10-16T19:59:16.240Z,80.25
2022-10-16T20:01:44.285Z,79.96
2022-10-16T20:04:12.960Z,80.79
2022-10-16T20:06:41.117Z,80.54
2022-10-16T20:09:09.252Z,80.29
2022-10-16T20:11:39.131Z,80.91
2022-10-16T20:14:07.875Z,81.02
2022-10-16T20:16:35.910Z,81.46
2022-10-16T20:19:04.744Z,81.08
2022-10-16T20:21:34.722Z,81.45
2022-10-16T20:24:04.378Z,80.72
2022-10-16T20:26:32.422Z,80.48
2022-10-16T20:29:02.273Z,80.86
2022-10-16T20:31:31.929Z,81.02
2022-10-16T20:34:04.590Z,80.62
2022-10-16T20:36:33.900Z,80.84
2022-10-16T20:39:02.695Z,80.51
2022-10-16T20:41:31.244Z,80.12
2022-10-16T20:44:01.585Z,80.13
2022-10-16T20:46:30.277Z,80.06
2022-10-16T20:49:06.192Z,80.19
2022-10-16T20:51:39.682Z,80.43
2022-10-16T20:54:08.497Z,80.15
2022-10-16T20:56:37.673Z,80.00
2022-10-16T20:59:07.848Z,80.02
2022-10-16T21:01:37.104Z,80.87
2022-10-16T21:04:07.883Z,81.28
2022-10-16T21:06:39.336Z,81.36
2022-10-16T21:09:08.077Z,81.64
2022-10-16T21:11:37.403Z,81.47
2022-10-16T21:14:08.746Z,81.29
2022-10-16T21:16:36.793Z,81.06
2022-10-16T21:19:05.993Z,80.96
2022-10-16T21:21:36.407Z,80.86
2022-10-16T21:24:04.589Z,81.18
2022-10-16T21:26:32.961Z,81.12
2022-10-16T21:29:03.910Z,80.95
2022-10-16T21:31:34.366Z,80.85
2022-10-16T21:34:03.146Z,80.75
2022-10-16T21:36:32.975Z,80.44
2022-10-16T21:39:03.299Z,80.12
2022-10-16T21:41:31.945Z,79.95
2022-10-16T21:44:01.537Z,80.45
2022-10-16T21:46:32.208Z,80.84
2022-10-16T21:49:05.002Z,80.58
2022-10-16T21:51:34.784Z,80.22
2022-10-16T21:54:02.797Z,80.03
2022-10-16T21:56:31.103Z,79.89
2022-10-16T21:58:59.417Z,79.67
2022-10-16T22:01:28.960Z,80.05
2022-10-16T22:03:56.934Z,80.10
2022-10-16T22:06:28.063Z,80.44
2022-10-16T22:08:59.468Z,79.94
2022-10-16T22:11:31.336Z,80.07
2022-10-16T22:13:59.292Z,80.40
2022-10-16T22:16:28.133Z,80.15
2022-10-16T22:18:57.880Z,80.14
2022-10-16T22:21:28.529Z,80.43
2022-10-16T22:23:56.760Z,80.38
2022-10-16T22:26:24.638Z,80.52
2022-10-16T22:28:52.990Z,80.67
2022-10-16T22:31:21.713Z,80.93
2022-10-16T22:33:49.626Z,81.00
2022-10-16T22:36:17.576Z,80.96
2022-10-16T22:38:46.925Z,80.99
2022-10-16T22:41:15.988Z,81.20
2022-10-16T22:43:45.754Z,81.59
2022-10-16T22:46:15.365Z,81.48
2022-10-16T22:48:43.862Z,81.76
2022-10-16T22:51:16.674Z,81.63
2022-10-16T22:53:47.697Z,81.96
2022-10-16T22:56:16.714Z,82.15
2022-10-16T22:58:45.179Z,82.98
2022-10-16T23:01:15.375Z,82.48
2022-10-16T23:03:43.331Z,82.14
2022-10-16T23:06:11.427Z,82.10
2022-10-16T23:08:39.463Z,81.96
2022-10-16T23:11:11.114Z,81.67
2022-10-16T23:13:39.372Z,81.79
2022-10-16T23:16:08.702Z,81.56
2022-10-16T23:18:36.758Z,81.65
2022-10-16T23:21:06.698Z,81.50
2022-10-16T23:23:35.895Z,81.42
2022-10-16T23:26:03.961Z,81.52
2022-10-16T23:28:33.329Z,81.62
2022-10-16T23:31:01.293Z,82.01
2022-10-16T23:33:29.257Z,81.67
2022-10-16T23:35:57.169Z,81.76
2022-10-16T23:38:25.083Z,81.59
2022-10-16T23:40:52.995Z,81.23
2022-10-16T23:43:20.917Z,80.85
2022-10-16T23:45:50.322Z,80.62
2022-10-16T23:48:18.240Z,81.02
2022-10-16T23:50:46.198Z,80.87
2022-10-16T23:53:15.067Z,80.76
2022-10-16T23:55:43.331Z,80.53
2022-10-16T23:58:11.306Z,80.25
